Time;durP1;ratioP1;P1;durP2;ratioP2;P2;SDS_P1;SDS_P2;PMS_P1;PMS_P2;Temp;Humidity;BMP_temperature;BMP_pressure;BME280_temperature;BME280_humidity;BME280_pressure;Samples;Min_cycle;Max_cycle;Signal;HPM_P1;HPM_P2
2020/12/31 00:02:29;;;;;;;;;50.75;45.00;;;;;4.63;72.14;101738.75;4350892;32;8898;-76
2020/12/31 00:04:59;;;;;;;;;45.33;42.00;;;;;4.53;72.38;101722.25;4361911;32;12426;-76
2020/12/31 00:07:57;;;;;;;;;40.67;40.67;;;;;4.45;72.78;101737.28;4365369;32;12461;-77
2020/12/31 00:10:52;;;;;;;;;61.67;44.33;;;;;4.57;72.43;101722.53;4352559;32;12576;-76
2020/12/31 00:13:48;;;;;;;;;42.50;40.50;;;;;4.61;72.27;101724.50;4382180;32;12406;-76
2020/12/31 00:16:44;;;;;;;;;37.67;36.67;;;;;4.45;72.21;101726.31;4375919;32;12444;-76
2020/12/31 00:19:40;;;;;;;;;41.67;37.67;;;;;4.36;72.70;101729.78;4364997;32;12407;-76
2020/12/31 00:22:08;;;;;;;;;44.00;39.75;;;;;4.47;72.28;101732.34;4363636;32;12424;-77
2020/12/31 00:25:06;;;;;;;;;41.00;37.67;;;;;4.43;72.35;101733.94;4364197;32;12494;-77
2020/12/31 00:27:50;;;;;;;;;43.00;38.33;;;;;4.47;72.02;101737.81;4371543;32;12433;-76
2020/12/31 00:30:47;;;;;;;;;41.75;40.00;;;;;4.42;72.00;101735.03;4361349;32;12528;-76
2020/12/31 00:33:42;;;;;;;;;43.00;40.67;;;;;4.38;72.09;101735.84;4363641;32;12526;-77
2020/12/31 00:36:12;;;;;;;;;40.75;40.50;;;;;4.41;72.12;101730.66;4375617;32;12453;-76
2020/12/31 00:39:07;;;;;;;;;49.67;43.00;;;;;4.24;72.78;101734.66;4365232;32;12423;-76
2020/12/31 00:42:03;;;;;;;;;46.75;42.75;;;;;4.29;72.62;101737.41;4362916;32;8919;-76
2020/12/31 00:44:59;;;;;;;;;45.75;38.00;;;;;4.25;72.79;101739.03;4373608;32;12559;-77
2020/12/31 00:47:55;;;;;;;;;47.50;42.75;;;;;4.21;73.01;101737.91;4362379;32;12483;-76
2020/12/31 00:50:50;;;;;;;;;43.67;43.00;;;;;4.28;72.83;101738.50;4373105;32;12427;-76
2020/12/31 00:53:46;;;;;;;;;39.33;39.33;;;;;4.19;72.87;101732.69;4374384;32;12432;-77
2020/12/31 00:56:27;;;;;;;;;34.67;32.33;;;;;4.19;72.90;101729.97;4374732;32;8983;-77
2020/12/31 00:59:22;;;;;;;;;39.00;39.00;;;;;4.29;72.80;101734.66;4364752;32;12491;-76
2020/12/31 01:02:18;;;;;;;;;43.00;34.67;;;;;4.22;72.71;101723.12;4375597;32;12400;-77
2020/12/31 01:05:14;;;;;;;;;38.67;38.33;;;;;4.21;72.84;101733.25;4375144;32;8915;-77
2020/12/31 01:08:09;;;;;;;;;36.00;34.67;;;;;4.35;72.64;101730.88;4374048;32;12410;-77
2020/12/31 01:11:05;;;;;;;;;49.00;43.50;;;;;4.11;72.96;101720.31;4374830;32;12448;-77
2020/12/31 01:14:02;;;;;;;;;43.00;41.67;;;;;4.29;72.73;101737.41;4388335;32;12391;-77
2020/12/31 01:16:57;;;;;;;;;38.75;34.75;;;;;4.22;73.01;101732.19;4363369;32;12410;-76
2020/12/31 01:19:53;;;;;;;;;38.67;38.67;;;;;4.27;72.80;101729.47;4348831;32;13113;-76
2020/12/31 01:22:49;;;;;;;;;36.00;36.00;;;;;4.28;72.86;101733.03;4347881;33;12483;-77
2020/12/31 01:25:46;;;;;;;;;40.50;39.50;;;;;4.09;73.10;101729.88;4338939;33;13308;-77
2020/12/31 01:28:35;;;;;;;;;44.67;43.33;;;;;4.28;72.80;101742.06;4357261;32;12410;-77
2020/12/31 01:31:33;;;;;;;;;41.67;39.33;;;;;4.22;73.12;101731.34;4363077;32;13076;-76
2020/12/31 01:34:28;;;;;;;;;43.25;37.25;;;;;4.33;73.04;101733.91;4341194;32;12526;-77
2020/12/31 01:36:59;;;;;;;;;44.75;40.50;;;;;4.33;73.01;101733.06;4380550;32;12381;-77
2020/12/31 01:39:55;;;;;;;;;39.00;36.00;;;;;4.55;72.47;101728.28;4377583;32;12402;-76
2020/12/31 01:42:51;;;;;;;;;39.75;39.50;;;;;4.57;72.71;101728.84;4367734;32;13106;-77
2020/12/31 01:45:46;;;;;;;;;33.75;31.25;;;;;4.54;72.65;101723.91;4375435;32;12392;-77
2020/12/31 01:48:42;;;;;;;;;41.25;40.50;;;;;4.65;72.71;101724.78;4359977;32;12477;-78
2020/12/31 01:51:43;;;;;;;;;38.75;32.50;;;;;4.78;72.40;101718.00;4355056;32;12548;-77
2020/12/31 01:54:40;;;;;;;;;29.00;29.00;;;;;4.70;72.34;101717.41;4370217;32;12577;-77
2020/12/31 01:57:36;;;;;;;;;37.50;37.50;;;;;4.72;72.58;101719.88;4364402;32;12389;-77
2020/12/31 02:00:04;;;;;;;;;51.00;41.25;;;;;4.82;72.26;101716.34;4376129;32;12464;-78
2020/12/31 02:02:59;;;;;;;;;47.00;44.33;;;;;4.84;72.03;101728.72;4373337;32;12483;-78
2020/12/31 02:05:55;;;;;;;;;50.50;45.50;;;;;5.01;71.57;101728.50;4373053;32;12480;-78
2020/12/31 02:08:52;;;;;;;;;40.50;35.75;;;;;5.03;71.69;101707.94;4374414;32;12458;-78
2020/12/31 02:11:47;;;;;;;;;36.25;34.50;;;;;4.93;72.14;101709.84;4373434;32;13104;-78
2020/12/31 02:14:50;;;;;;;;;34.00;33.50;;;;;4.95;71.97;101708.47;4372495;32;12410;-77
2020/12/31 02:17:46;;;;;;;;;30.00;30.00;;;;;5.01;72.26;101703.81;4348431;33;12398;-77
2020/12/31 02:20:16;;;;;;;;;43.75;39.50;;;;;5.08;72.01;101707.16;4359708;32;12494;-78
2020/12/31 02:23:12;;;;;;;;;36.75;36.50;;;;;5.15;71.73;101698.66;4350235;33;13164;-78
2020/12/31 02:26:07;;;;;;;;;35.00;32.25;;;;;5.14;71.97;101706.06;4348691;32;12672;-77
2020/12/31 02:28:38;;;;;;;;;50.75;45.00;;;;;5.17;71.96;101699.22;4347105;33;12410;-77
2020/12/31 02:31:37;;;;;;;;;42.75;40.50;;;;;5.12;72.32;101691.78;4350101;33;12661;-77
2020/12/31 02:34:06;;;;;;;;;41.50;39.00;;;;;5.20;72.30;101699.47;4346265;33;12598;-77
2020/12/31 02:37:02;;;;;;;;;46.50;42.50;;;;;5.15;72.29;101696.75;4359922;33;12443;-78
2020/12/31 02:39:57;;;;;;;;;51.50;45.50;;;;;5.19;72.09;101695.09;4359591;32;12444;-77
2020/12/31 02:42:53;;;;;;;;;56.00;49.00;;;;;5.18;72.49;101693.44;4347254;33;12470;-77
2020/12/31 02:45:48;;;;;;;;;46.25;43.75;;;;;5.14;72.53;101700.59;4347559;32;12478;-77
2020/12/31 02:48:44;;;;;;;;;40.25;38.75;;;;;5.15;72.51;101704.97;4384995;32;12462;-77
2020/12/31 02:51:13;;;;;;;;;24.25;24.25;;;;;4.92;73.49;101728.19;4366710;32;12537;-77
2020/12/31 02:54:08;;;;;;;;;41.75;37.75;;;;;5.04;73.21;101711.50;4348839;33;12410;-78
2020/12/31 02:57:04;;;;;;;;;43.50;37.00;;;;;4.97;73.17;101714.50;4350592;33;12458;-78
2020/12/31 03:00:00;;;;;;;;;38.50;36.75;;;;;4.92;73.68;101719.97;4377255;32;12488;-78
2020/12/31 03:02:35;;;;;;;;;34.75;31.50;;;;;5.13;72.85;101722.78;4370156;32;12441;-78
2020/12/31 03:05:31;;;;;;;;;37.25;36.25;;;;;5.13;72.82;101733.75;4360268;32;12432;-78
2020/12/31 03:08:27;;;;;;;;;43.25;40.50;;;;;5.07;73.05;101724.69;4351525;32;12463;-77
2020/12/31 03:11:25;;;;;;;;;41.50;40.25;;;;;5.08;72.88;101722.78;4350351;32;12615;-77
2020/12/31 03:14:20;;;;;;;;;34.75;33.75;;;;;5.07;72.90;101721.13;4365359;32;13139;-77
2020/12/31 03:17:16;;;;;;;;;41.25;39.00;;;;;5.08;72.89;101709.88;4371854;32;12517;-77
2020/12/31 03:20:13;;;;;;;;;48.25;44.75;;;;;4.97;73.20;101717.22;4366119;32;12458;-77
2020/12/31 03:23:11;;;;;;;;;43.50;40.25;;;;;5.02;73.00;101713.69;4377225;32;12403;-78
2020/12/31 03:25:39;;;;;;;;;36.25;36.25;;;;;5.00;72.87;101710.41;4361405;32;12533;-77
2020/12/31 03:28:35;;;;;;;;;38.25;35.25;;;;;5.02;73.14;101714.53;4351034;32;12516;-76
2020/12/31 03:31:34;;;;;;;;;37.00;33.25;;;;;5.11;72.91;101706.59;4360797;32;12457;-77
2020/12/31 03:34:29;;;;;;;;;40.50;37.75;;;;;4.99;73.60;101706.03;4380806;32;12399;-76
2020/12/31 03:37:25;;;;;;;;;41.75;40.50;;;;;5.03;73.59;101709.84;4372414;32;12458;-76
2020/12/31 03:40:22;;;;;;;;;42.00;40.75;;;;;5.05;73.81;101701.34;4378676;32;12404;-76
2020/12/31 03:43:19;;;;;;;;;54.75;44.50;;;;;5.06;74.09;101708.50;4369257;32;12418;-76
2020/12/31 03:46:15;;;;;;;;;62.67;51.00;;;;;5.09;74.12;101711.53;4365112;32;12500;-75
2020/12/31 03:49:11;;;;;;;;;46.00;40.75;;;;;5.07;74.44;101699.19;4378922;32;12323;-76
2020/12/31 03:52:07;;;;;;;;;38.50;38.50;;;;;5.02;74.42;101691.75;4376075;32;12505;-76
2020/12/31 03:55:02;;;;;;;;;66.67;54.00;;;;;5.08;74.47;101698.91;4366587;32;12519;-77
2020/12/31 03:57:59;;;;;;;;;59.00;50.67;;;;;5.11;74.36;101701.13;4373419;32;8904;-77
2020/12/31 04:00:57;;;;;;;;;57.00;47.67;;;;;4.89;75.13;101695.00;4351724;32;9644;-77
2020/12/31 04:03:53;;;;;;;;;56.67;48.00;;;;;5.03;74.58;101691.50;4373428;32;12603;-77
2020/12/31 04:06:49;;;;;;;;;67.00;55.00;;;;;5.02;74.80;101705.47;4374579;32;13097;-77
2020/12/31 04:09:44;;;;;;;;;62.67;49.33;;;;;4.90;75.23;101704.87;4365410;32;9081;-76
2020/12/31 04:12:41;;;;;;;;;41.00;41.00;;;;;4.97;75.25;101724.63;4364070;32;12469;-78
2020/12/31 04:15:37;;;;;;;;;49.00;44.25;;;;;5.04;75.24;101725.22;4374336;32;12399;-76
2020/12/31 04:18:05;;;;;;;;;47.50;41.50;;;;;4.89;75.60;101727.91;4362748;32;12460;-77
2020/12/31 04:21:00;;;;;;;;;56.00;49.00;;;;;4.98;75.58;101721.66;4366780;32;12432;-76
2020/12/31 04:23:39;;;;;;;;;64.67;54.33;;;;;5.12;75.18;101724.69;4361490;32;8920;-77
2020/12/31 04:26:37;;;;;;;;;61.00;47.67;;;;;4.97;75.82;101714.50;4350794;33;8945;-77
2020/12/31 04:29:35;;;;;;;;;53.50;45.25;;;;;5.05;75.47;101709.59;4350525;32;12600;-77
2020/12/31 04:32:30;;;;;;;;;44.50;42.00;;;;;4.94;75.57;101717.78;4359202;33;12444;-76
2020/12/31 04:35:27;;;;;;;;;50.75;45.25;;;;;4.90;75.70;101730.34;4349521;33;13179;-77
2020/12/31 04:38:22;;;;;;;;;48.00;43.25;;;;;4.99;75.56;101727.97;4360795;32;12555;-77
2020/12/31 04:41:18;;;;;;;;;49.75;45.25;;;;;4.95;75.53;101732.31;4359502;32;12484;-77
2020/12/31 04:43:58;;;;;;;;;65.00;53.67;;;;;4.93;75.64;101737.25;4368394;32;12414;-77
2020/12/31 04:46:28;;;;;;;;;70.67;59.67;;;;;5.06;75.17;101727.69;4349046;32;8949;-76
2020/12/31 04:49:07;;;;;;;;;48.00;45.00;;;;;4.96;75.10;101715.59;4375438;32;8911;-76
2020/12/31 04:52:05;;;;;;;;;51.25;45.00;;;;;5.03;75.04;101704.37;4375069;32;12456;-77
2020/12/31 04:54:37;;;;;;;;;58.33;49.67;;;;;4.92;75.17;101710.94;4366959;32;12437;-77
2020/12/31 04:57:33;;;;;;;;;34.00;33.75;;;;;5.01;75.16;101723.84;4360353;32;12463;-77
2020/12/31 05:00:29;;;;;;;;;32.25;30.75;;;;;5.00;74.88;101722.19;4370116;32;12454;-78
2020/12/31 05:03:25;;;;;;;;;28.00;26.75;;;;;4.95;75.22;101735.06;4372541;32;12453;-77
2020/12/31 05:06:23;;;;;;;;;25.00;25.00;;;;;4.98;75.22;101734.50;4375153;32;12391;-77
2020/12/31 05:09:20;;;;;;;;;29.50;29.50;;;;;5.00;75.29;101738.66;4375788;32;12488;-77
2020/12/31 05:12:28;;;;;;;;;22.00;22.00;;;;;4.91;75.36;101734.78;4363127;32;12400;-77
2020/12/31 05:15:40;;;;;;;;;15.00;13.25;;;;;4.81;76.10;101756.63;4364609;32;12404;-77
2020/12/31 05:18:36;;;;;;;;;24.25;24.00;;;;;4.79;75.94;101758.00;4364358;32;12311;-78
2020/12/31 05:21:15;;;;;;;;;21.25;19.25;;;;;4.85;75.96;101744.06;4376191;32;12358;-77
2020/12/31 05:24:13;;;;;;;;;22.50;22.50;;;;;4.74;76.54;101754.12;4374554;32;12397;-76
2020/12/31 05:26:42;;;;;;;;;28.00;27.75;;;;;4.77;76.07;101743.75;4380121;32;12431;-77
2020/12/31 05:29:10;;;;;;;;;29.00;28.25;;;;;4.79;76.13;101738.81;4375195;32;12450;-76
2020/12/31 05:32:05;;;;;;;;;28.75;28.75;;;;;4.81;76.21;101762.13;4363728;32;12470;-76
2020/12/31 05:34:33;;;;;;;;;23.25;23.25;;;;;4.85;75.91;101756.94;4373427;32;12424;-77
2020/12/31 05:37:30;;;;;;;;;22.50;22.50;;;;;4.93;75.89;101745.47;4373126;32;12404;-77
2020/12/31 05:40:26;;;;;;;;;22.00;19.50;;;;;4.93;75.42;101751.78;4348351;33;12401;-78
2020/12/31 05:43:23;;;;;;;;;25.25;25.25;;;;;4.86;75.83;101756.69;4366084;32;12386;-77
2020/12/31 05:46:20;;;;;;;;;36.25;33.50;;;;;4.83;76.24;101761.84;4361064;32;12475;-78
2020/12/31 05:49:10;;;;;;;;;25.25;25.00;;;;;4.82;76.37;101751.97;4359610;32;12472;-78
2020/12/31 05:52:06;;;;;;;;;36.00;34.25;;;;;4.89;76.04;101738.84;4364558;32;12392;-78
2020/12/31 05:54:39;;;;;;;;;29.50;25.75;;;;;4.79;76.24;101745.13;4362604;32;12404;-78
2020/12/31 05:57:47;;;;;;;;;23.50;21.75;;;;;4.89;75.84;101747.91;4363414;32;12598;-78
2020/12/31 06:00:56;;;;;;;;;22.00;22.00;;;;;4.70;76.40;101744.81;4365154;32;12590;-78
2020/12/31 06:03:52;;;;;;;;;25.50;25.50;;;;;4.90;76.02;101754.22;4353432;32;12486;-78
2020/12/31 06:06:50;;;;;;;;;25.50;22.75;;;;;4.93;75.91;101751.78;4365278;32;13108;-78
2020/12/31 06:10:01;;;;;;;;;37.75;37.25;;;;;4.85;76.25;101744.06;4349733;32;12448;-77
2020/12/31 06:13:01;;;;;;;;;27.75;24.25;;;;;4.78;76.41;101750.88;4361449;32;12462;-78
2020/12/31 06:15:37;;;;;;;;;14.50;14.50;;;;;4.91;75.64;101767.69;4361146;32;12402;-78
2020/12/31 06:18:43;;;;;;;;;23.00;21.50;;;;;4.64;76.60;101754.09;4347707;33;13104;-79
2020/12/31 06:21:43;;;;;;;;;23.75;22.00;;;;;4.85;76.02;101756.94;4349899;33;12544;-78
2020/12/31 06:24:47;;;;;;;;;22.00;22.00;;;;;4.60;77.11;101750.25;4358248;32;12474;-78
2020/12/31 06:27:45;;;;;;;;;26.50;22.25;;;;;4.80;76.24;101759.66;4365285;32;12425;-77
2020/12/31 06:30:14;;;;;;;;;30.25;30.25;;;;;4.82;76.50;101750.06;4355452;32;12502;-78
2020/12/31 06:33:12;;;;;;;;;32.00;29.25;;;;;4.92;75.99;101743.81;4362059;32;12451;-77
2020/12/31 06:35:42;;;;;;;;;31.00;30.00;;;;;4.96;76.09;101750.41;4373244;32;12411;-77
2020/12/31 06:38:42;;;;;;;;;28.25;27.75;;;;;4.88;76.57;101739.94;4361388;32;12526;-79
2020/12/31 06:41:31;;;;;;;;;27.75;25.50;;;;;5.01;75.79;101744.97;4389387;32;12527;-79
2020/12/31 06:44:05;;;;;;;;;32.50;31.75;;;;;4.93;76.04;101750.97;4397232;32;12417;-79
2020/12/31 06:47:02;;;;;;;;;26.75;26.00;;;;;4.97;75.43;101746.56;4385971;32;12405;-77
2020/12/31 06:49:59;;;;;;;;;28.50;26.00;;;;;5.02;75.15;101744.69;4364213;32;12341;-81
2020/12/31 06:52:41;;;;;;;;;40.00;36.25;;;;;4.85;76.29;101740.50;4361770;32;12377;-78
2020/12/31 06:55:26;;;;;;;;;22.50;21.75;;;;;5.00;75.39;101735.09;4374774;32;12976;-78
2020/12/31 06:58:24;;;;;;;;;25.25;23.75;;;;;4.85;75.17;101735.03;4369961;32;12360;-78
2020/12/31 07:01:29;;;;;;;;;24.25;22.50;;;;;4.92;74.85;101741.91;4364821;32;12404;-77
2020/12/31 07:04:36;;;;;;;;;23.00;23.00;;;;;4.83;74.76;101765.44;4348494;33;12430;-79
2020/12/31 07:07:31;;;;;;;;;23.25;20.50;;;;;4.79;75.25;101763.50;4365945;32;12403;-78
2020/12/31 07:10:43;;;;;;;;;21.00;21.00;;;;;4.95;74.75;101762.47;4381681;32;12483;-78
2020/12/31 07:13:39;;;;;;;;;15.00;15.00;;;;;4.85;75.11;101765.16;4372464;32;13099;-79
2020/12/31 07:16:47;;;;;;;;;22.25;22.25;;;;;4.86;75.00;101761.34;4372489;32;12451;-79
2020/12/31 07:19:44;;;;;;;;;22.75;22.75;;;;;4.86;75.09;101759.41;4373939;32;12466;-81
2020/12/31 07:22:43;;;;;;;;;23.25;19.25;;;;;4.88;75.14;101767.38;4353698;32;12445;-77
2020/12/31 07:25:47;;;;;;;;;26.00;26.00;;;;;4.93;74.95;101770.16;4353007;32;12453;-83
2020/12/31 07:28:44;;;;;;;;;32.00;28.50;;;;;4.90;75.20;101776.97;4366794;32;12441;-81
2020/12/31 07:31:42;;;;;;;;;29.00;28.50;;;;;5.01;75.36;101767.72;4371655;32;12556;-80
2020/12/31 07:34:39;;;;;;;;;36.00;30.75;;;;;5.11;75.45;101779.81;4374522;32;12461;-80
2020/12/31 07:37:34;;;;;;;;;30.25;30.25;;;;;5.14;74.72;101762.84;4373956;32;12574;-81
2020/12/31 07:40:30;;;;;;;;;30.50;29.25;;;;;4.82;75.46;101762.94;4354403;32;12452;-80
2020/12/31 07:43:27;;;;;;;;;21.75;21.75;;;;;4.89;75.40;101767.09;4377851;32;12392;-80
2020/12/31 07:46:28;;;;;;;;;34.00;31.75;;;;;4.82;75.84;101763.78;4382167;32;12474;-82
2020/12/31 07:48:55;;;;;;;;;36.25;36.25;;;;;4.79;75.87;101752.53;4361525;32;12515;-81
2020/12/31 07:51:50;;;;;;;;;23.50;21.25;;;;;4.86;75.65;101753.94;4362341;32;12583;-82
2020/12/31 07:54:47;;;;;;;;;25.50;25.00;;;;;4.96;75.30;101767.69;4361937;32;12600;-86
2020/12/31 07:57:22;;;;;;;;;14.00;12.75;;;;;4.93;75.16;101768.22;4360301;32;12417;-81
2020/12/31 08:00:21;;;;;;;;;19.50;19.25;;;;;4.78;74.81;101764.59;4379044;32;12396;-73
2020/12/31 08:03:18;;;;;;;;;21.50;19.75;;;;;4.93;74.55;101757.25;4385533;32;12425;-73
2020/12/31 08:05:46;;;;;;;;;24.25;24.25;;;;;4.94;74.62;101767.12;4362340;32;12401;-73
2020/12/31 08:08:16;;;;;;;;;20.75;20.25;;;;;5.06;74.35;101758.69;4361167;32;12370;-74
2020/12/31 08:11:15;;;;;;;;;33.75;33.75;;;;;5.09;74.51;101757.31;4374011;32;12385;-74
2020/12/31 08:14:11;;;;;;;;;41.00;37.50;;;;;5.02;74.72;101749.34;4365368;32;13128;-73
2020/12/31 08:17:09;;;;;;;;;32.25;32.00;;;;;4.97;75.24;101749.31;4371558;32;12564;-74
2020/12/31 08:20:07;;;;;;;;;46.00;42.00;;;;;4.99;74.85;101747.97;4363962;32;12519;-74
2020/12/31 08:23:00;;;;;;;;;35.25;34.25;;;;;5.16;74.67;101742.28;4373123;32;12386;-74
2020/12/31 08:25:59;;;;;;;;;39.75;39.50;;;;;5.25;74.80;101737.91;4386927;32;12465;-73
2020/12/31 08:28:29;;;;;;;;;30.25;30.25;;;;;5.22;74.74;101737.63;4362365;32;12423;-74
2020/12/31 08:31:28;;;;;;;;;29.50;27.50;;;;;5.29;74.31;101735.44;4365183;32;12349;-74
2020/12/31 08:34:00;;;;;;;;;23.00;23.00;;;;;5.24;74.29;101730.78;4374093;32;12349;-74
2020/12/31 08:36:59;;;;;;;;;25.75;23.75;;;;;5.22;74.34;101727.50;4364337;32;12439;-78
2020/12/31 08:39:57;;;;;;;;;25.50;25.50;;;;;5.16;73.94;101731.31;4376141;32;12397;-83
2020/12/31 08:42:54;;;;;;;;;29.50;29.50;;;;;5.00;74.51;101732.34;4381742;32;13122;-83
2020/12/31 08:45:51;;;;;;;;;35.25;33.00;;;;;5.21;74.59;101725.84;4373523;32;12440;-83
2020/12/31 08:48:54;;;;;;;;;31.50;27.00;;;;;5.30;74.37;101724.22;4368795;32;13046;-83
2020/12/31 08:51:29;;;;;;;;;31.25;30.25;;;;;5.35;74.44;101717.91;4348751;33;12919;-83
2020/12/31 08:54:27;;;;;;;;;32.75;32.75;;;;;5.34;74.58;101715.44;4349510;32;12428;-82
2020/12/31 08:57:22;;;;;;;;;246.25;174.50;;;;;5.22;75.17;101710.22;4350143;33;12467;-82
2020/12/31 09:00:35;;;;;;;;;104.67;89.33;;;;;5.37;75.08;101712.13;4350545;33;8902;-85
2020/12/31 09:03:31;;;;;;;;;144.50;121.00;;;;;5.45;74.39;101709.72;4358217;32;8911;-83
2020/12/31 09:06:00;;;;;;;;;61.67;49.00;;;;;5.51;74.17;101708.59;4362475;32;8988;-84
2020/12/31 09:08:57;;;;;;;;;63.00;50.00;;;;;5.44;74.07;101710.78;4359198;32;8927;-85
2020/12/31 09:12:03;;;;;;;;;73.33;57.33;;;;;5.29;74.64;101705.25;4363145;32;9101;-82
2020/12/31 09:15:04;;;;;;;;;79.00;63.67;;;;;5.54;74.31;101708.06;4366404;32;8960;-79
2020/12/31 09:18:01;;;;;;;;;68.67;56.00;;;;;5.49;74.44;101699.81;4382496;32;8909;-84
2020/12/31 09:20:42;;;;;;;;;38.00;37.25;;;;;5.72;73.95;101705.88;4368334;32;8913;-81
2020/12/31 09:23:38;;;;;;;;;45.25;42.25;;;;;5.55;74.06;101700.66;4359940;32;12396;-83
2020/12/31 09:26:37;;;;;;;;;61.33;52.33;;;;;5.56;74.13;101702.31;4350497;32;12484;-83
2020/12/31 09:29:34;;;;;;;;;41.25;40.00;;;;;5.68;74.09;101702.88;4358945;32;8994;-83
2020/12/31 09:32:30;;;;;;;;;61.25;51.00;;;;;5.70;74.13;101700.69;4364480;32;12488;-83
2020/12/31 09:35:26;;;;;;;;;54.00;47.75;;;;;5.61;74.38;101691.34;4372943;32;13053;-82
2020/12/31 09:37:59;;;;;;;;;29.50;29.00;;;;;5.74;73.89;101700.94;4363217;32;12464;-77
2020/12/31 09:40:54;;;;;;;;;53.00;45.50;;;;;5.78;73.70;101688.31;4358144;32;12425;-78
2020/12/31 09:43:50;;;;;;;;;38.25;36.50;;;;;5.82;73.51;101687.50;4369727;32;12556;-78
2020/12/31 09:46:46;;;;;;;;;69.67;54.00;;;;;5.97;73.17;101689.44;4367955;32;12474;-77
2020/12/31 09:49:43;;;;;;;;;52.00;45.25;;;;;5.92;73.42;101683.97;4366529;32;12362;-78
2020/12/31 09:52:40;;;;;;;;;52.25;47.00;;;;;6.03;73.29;101674.59;4349739;32;12431;-77
2020/12/31 09:55:37;;;;;;;;;72.33;59.00;;;;;6.22;73.00;101672.12;4358992;32;13224;-78
2020/12/31 09:58:05;;;;;;;;;77.67;62.33;;;;;6.12;73.05;101672.12;4346289;33;8909;-78
2020/12/31 10:01:02;;;;;;;;;79.67;63.33;;;;;6.14;72.98;101664.44;4348847;33;8914;-79
2020/12/31 10:03:58;;;;;;;;;87.00;64.33;;;;;6.30;72.46;101657.81;4357585;32;9568;-78
2020/12/31 10:06:46;;;;;;;;;42.00;40.75;;;;;6.31;72.47;101647.66;4366310;32;8914;-78
2020/12/31 10:09:41;;;;;;;;;70.00;57.00;;;;;6.35;72.52;101645.97;4371976;32;12426;-78
2020/12/31 10:12:37;;;;;;;;;65.00;52.75;;;;;6.40;72.70;101652.28;4362653;32;12489;-79
2020/12/31 10:15:34;;;;;;;;;73.67;61.00;;;;;6.41;72.65;101659.41;4374253;32;12426;-80
2020/12/31 10:18:02;;;;;;;;;48.00;43.75;;;;;6.58;72.50;101650.03;4360690;32;8906;-79
2020/12/31 10:20:58;;;;;;;;;31.00;31.00;;;;;6.57;72.16;101637.37;4375193;32;12444;-79
2020/12/31 10:23:26;;;;;;;;;45.25;40.00;;;;;6.35;72.83;101633.06;4373046;32;12482;-79
2020/12/31 10:26:21;;;;;;;;;85.33;68.67;;;;;6.47;72.63;101641.00;4357917;32;12448;-79
2020/12/31 10:29:18;;;;;;;;;155.67;127.67;;;;;6.38;73.10;101640.75;4370180;32;8941;-79
2020/12/31 10:32:15;;;;;;;;;96.00;71.33;;;;;6.40;73.24;101621.25;4372563;32;8965;-80
2020/12/31 10:35:11;;;;;;;;;111.00;85.33;;;;;6.51;72.82;101616.50;4362022;32;8923;-78
2020/12/31 10:38:06;;;;;;;;;55.25;47.25;;;;;6.63;72.60;101617.84;4365011;32;8938;-79
2020/12/31 10:41:02;;;;;;;;;65.75;53.75;;;;;6.73;72.56;101611.47;4373276;32;12510;-79
2020/12/31 10:43:59;;;;;;;;;55.00;47.25;;;;;6.65;72.43;101610.13;4373558;32;12377;-87
2020/12/31 10:46:55;;;;;;;;;97.33;80.33;;;;;6.72;72.61;101609.81;4368388;32;12536;-87
2020/12/31 10:49:51;;;;;;;;;36.50;32.25;;;;;6.76;72.17;101601.84;4365222;32;8950;-85
2020/12/31 10:52:20;;;;;;;;;50.50;43.50;;;;;6.73;72.37;101600.47;4340348;32;12383;-88
2020/12/31 10:55:17;;;;;;;;;49.50;45.00;;;;;6.72;72.23;101598.00;4364289;32;12425;-87
2020/12/31 10:58:09;;;;;;;;;31.75;30.00;;;;;6.66;72.21;101600.78;4379295;32;12523;-88
2020/12/31 11:01:18;;;;;;;;;30.75;29.00;;;;;6.72;72.00;101614.50;4356481;32;12491;-77
2020/12/31 11:04:14;;;;;;;;;79.67;64.33;;;;;6.58;72.52;101604.13;4375814;32;13073;-82
2020/12/31 11:07:10;;;;;;;;;70.75;58.00;;;;;6.65;72.19;101601.06;4368444;32;8909;-79
2020/12/31 11:09:37;;;;;;;;;85.67;66.00;;;;;6.59;72.84;101594.75;4381633;32;12372;-81
2020/12/31 11:12:33;;;;;;;;;92.33;74.00;;;;;6.66;72.53;101586.22;4389587;32;12671;-81
2020/12/31 11:15:28;;;;;;;;;33.00;31.50;;;;;6.52;72.96;101591.53;4371395;32;8982;-81
2020/12/31 11:18:24;;;;;;;;;36.75;36.75;;;;;6.43;73.29;101584.12;4376448;32;12462;-80
2020/12/31 11:21:06;;;;;;;;;39.75;38.75;;;;;6.66;73.09;101583.47;4376672;32;12438;-82
2020/12/31 11:24:01;;;;;;;;;43.50;41.00;;;;;6.63;72.97;101582.13;4363484;32;12537;-82
2020/12/31 11:26:28;;;;;;;;;36.75;36.75;;;;;6.74;72.49;101585.63;4370241;32;12428;-81
2020/12/31 11:29:24;;;;;;;;;38.75;38.25;;;;;6.60;73.12;101590.94;4392234;32;12574;-82
2020/12/31 11:32:23;;;;;;;;;36.50;34.50;;;;;6.73;72.82;101583.97;4380984;32;12513;-80
2020/12/31 11:35:19;;;;;;;;;40.00;39.25;;;;;6.64;72.91;101586.50;4389743;32;12504;-81
2020/12/31 11:38:17;;;;;;;;;51.25;45.00;;;;;6.81;72.54;101580.62;4378661;32;12480;-82
2020/12/31 11:41:15;;;;;;;;;37.50;34.75;;;;;6.81;72.43;101594.38;4379818;32;12542;-80
2020/12/31 11:44:11;;;;;;;;;68.50;53.50;;;;;6.88;72.24;101591.31;4367308;32;12338;-81
2020/12/31 11:47:06;;;;;;;;;70.75;55.50;;;;;6.72;72.54;101579.59;4376107;32;12391;-80
2020/12/31 11:50:04;;;;;;;;;72.50;54.75;;;;;6.79;72.52;101577.34;4376182;32;12345;-79
2020/12/31 11:53:00;;;;;;;;;30.50;30.00;;;;;6.89;72.39;101574.53;4379228;32;12414;-81
2020/12/31 11:56:02;;;;;;;;;83.33;64.67;;;;;7.01;72.27;101574.19;4365993;32;12454;-79
2020/12/31 11:58:58;;;;;;;;;122.67;99.67;;;;;7.11;71.83;101562.28;4384299;32;8908;-80
2020/12/31 12:01:53;;;;;;;;;88.00;68.00;;;;;7.15;71.84;101561.44;4383688;32;9008;-80
2020/12/31 12:04:50;;;;;;;;;96.67;79.67;;;;;7.13;71.71;101584.81;4377617;32;8927;-79
2020/12/31 12:07:46;;;;;;;;;80.67;66.00;;;;;7.04;71.66;101583.78;4368302;32;8950;-79
2020/12/31 12:10:41;;;;;;;;;32.00;31.75;;;;;7.27;71.46;101572.06;4374585;32;12473;-79
2020/12/31 12:13:38;;;;;;;;;64.75;52.75;;;;;7.22;71.10;101578.44;4374289;32;13115;-80
2020/12/31 12:16:51;;;;;;;;;61.75;51.25;;;;;7.09;72.12;101587.34;4373706;32;12535;-83
2020/12/31 12:19:49;;;;;;;;;43.75;42.00;;;;;7.23;71.77;101566.34;4363732;32;12440;-80
2020/12/31 12:22:45;;;;;;;;;50.50;43.50;;;;;7.37;71.61;101572.00;4369528;32;12458;-80
2020/12/31 12:25:35;;;;;;;;;46.25;42.50;;;;;7.31;71.46;101575.91;4377245;32;12411;-83
2020/12/31 12:28:30;;;;;;;;;46.50;39.25;;;;;7.10;72.15;101580.72;4364637;32;12500;-83
2020/12/31 12:31:06;;;;;;;;;83.00;63.33;;;;;6.87;72.64;101575.94;4369825;32;12398;-82
2020/12/31 12:34:03;;;;;;;;;35.50;34.75;;;;;7.06;72.45;101576.91;4372789;32;12418;-83
2020/12/31 12:36:31;;;;;;;;;75.00;59.50;;;;;7.11;72.16;101579.63;4375640;32;12441;-84
2020/12/31 12:39:12;;;;;;;;;71.75;57.25;;;;;7.11;72.10;101579.63;4372157;32;13123;-83
2020/12/31 12:42:09;;;;;;;;;54.25;45.25;;;;;7.16;72.29;101587.03;4364216;32;12426;-85
2020/12/31 12:45:07;;;;;;;;;74.25;61.25;;;;;7.12;72.05;101575.75;4377813;32;13061;-85
2020/12/31 12:47:38;;;;;;;;;46.75;43.00;;;;;7.28;71.87;101583.88;4376384;32;12524;-85
2020/12/31 12:50:33;;;;;;;;;56.50;47.25;;;;;7.22;72.31;101585.87;4377417;32;12465;-84
2020/12/31 12:53:30;;;;;;;;;67.75;57.50;;;;;7.20;72.07;101585.31;4359797;32;12406;-86
2020/12/31 12:56:26;;;;;;;;;51.50;44.75;;;;;7.31;72.06;101589.66;4348459;33;12556;-85
2020/12/31 12:59:21;;;;;;;;;56.75;48.50;;;;;7.12;72.68;101588.69;4371757;32;12348;-84
2020/12/31 13:01:59;;;;;;;;;64.75;54.75;;;;;7.16;72.47;101582.34;4378035;32;13033;-84
2020/12/31 13:04:54;;;;;;;;;59.75;51.75;;;;;7.21;72.76;101579.56;4390064;32;12396;-84
2020/12/31 13:07:50;;;;;;;;;81.33;65.00;;;;;7.25;72.65;101575.09;4378667;32;12423;-85
2020/12/31 13:10:47;;;;;;;;;47.75;41.25;;;;;7.29;72.35;101572.63;4376963;32;8959;-84
2020/12/31 13:13:42;;;;;;;;;69.75;56.75;;;;;7.32;72.48;101563.78;4363947;32;12478;-82